Date,TemperatureHighF,TemperatureAvgF,TemperatureLowF,DewpointHighF,DewpointAvgF,DewpointLowF,HumidityHigh,HumidityAvg,HumidityLow,PressureMaxIn,PressureMinIn,WindSpeedMaxMPH,WindSpeedAvgMPH,GustSpeedMaxMPH,PrecipitationSumIn
2013-3-1,84.0,74.9,70.0,63.0,54.2,48.0,62,50,29,0.00,40.00,14,9,28,0.00
2013-3-2,85.0,74.8,70.0,59.0,53.6,46.0,67,49,26,0.00,40.00,16,9,32,0.00
2013-3-3,86.0,74.8,69.0,57.0,51.1,46.0,60,45,29,0.00,40.00,14,10,29,0.00
2013-3-4,85.0,74.6,69.0,62.0,53.2,47.0,58,48,28,0.00,40.00,16,9,27,0.00
2013-3-5,88.0,75.0,68.0,59.0,52.8,44.0,62,48,22,0.00,40.00,11,8,22,0.00
2013-3-6,91.0,76.4,71.0,63.0,58.9,55.0,70,56,30,0.00,40.00,12,8,22,0.00
2013-3-7,89.0,77.2,71.0,63.0,55.6,42.0,71,49,23,0.00,40.00,6,3,13,0.00
2013-3-8,93.0,77.7,68.0,65.0,54.8,37.0,70,51,16,0.00,40.00,6,4,14,0.00
2013-3-9,89.0,79.6,74.0,72.0,67.0,64.0,74,66,51,0.00,40.00,7,4,16,0.58
2013-3-10,81.0,74.3,70.0,72.0,65.0,58.0,75,73,67,0.00,40.00,5,3,13,1.97
2013-3-11,87.0,76.3,67.0,69.0,60.0,55.0,72,58,40,0.00,40.00,4,2,9,0.01
2013-3-12,94.0,77.5,70.0,64.0,58.0,49.0,72,53,26,0.00,40.00,6,3,13,0.00
2013-3-13,85.0,74.6,70.0,62.0,57.3,48.0,70,56,34,0.00,40.00,6,4,16,0.00
2013-3-14,88.0,75.2,69.0,62.0,57.6,51.0,71,56,32,0.00,40.00,5,3,10,0.00
2013-3-15,84.0,73.9,68.0,64.0,58.8,53.0,72,60,38,0.00,40.00,7,4,19,0.00
2013-3-16,89.0,72.7,66.0,59.0,50.9,42.0,70,49,23,0.00,40.00,7,4,18,0.00
2013-3-17,90.0,73.6,66.0,56.0,50.2,43.0,66,46,20,0.00,40.00,7,4,15,0.00
2013-3-18,83.0,72.7,66.0,56.0,53.5,47.0,66,52,32,0.00,40.00,6,3,12,0.00
2013-3-19,90.0,76.4,68.0,65.0,58.5,54.0,73,55,32,0.00,40.00,7,5,14,0.11
2013-3-20,90.0,78.5,71.0,70.0,63.8,58.0,74,63,36,0.00,40.00,7,5,13,0.13
2013-3-21,89.0,80.3,72.0,71.0,64.1,56.0,74,59,47,0.00,40.00,9,6,17,0.02
2013-3-22,87.0,77.7,75.0,70.0,67.5,65.0,76,72,50,0.00,40.00,7,3,16,0.11
2013-3-23,83.0,75.8,72.0,67.0,63.5,60.0,76,66,48,0.00,40.00,11,6,22,0.12
2013-3-24,76.0,73.8,72.0,67.0,64.4,60.0,75,73,69,0.00,40.00,13,9,23,0.52
2013-3-25,86.0,78.4,72.0,70.0,64.2,56.0,71,62,51,0.00,40.00,6,4,12,0.03
2013-3-26,90.0,78.0,73.0,71.0,64.8,61.0,73,65,42,0.00,40.00,7,4,13,0.00
2013-3-27,83.0,77.6,73.0,69.0,65.3,61.0,70,66,58,0.00,40.00,9,6,24,0.26
2013-3-28,86.0,79.1,74.0,65.0,61.5,59.0,70,56,43,0.00,40.00,14,10,26,0.01
2013-3-29,84.0,75.9,72.0,65.0,62.4,60.0,72,64,47,0.00,40.00,12,8,21,0.00
2013-3-30,92.0,77.0,71.0,67.0,59.7,-99.9,74,60,38,0.00,40.00,9,4,17,0.00
2013-3-31,87.0,73.5,66.0,54.0,47.2,42.0,57,42,21,0.00,40.00,8,5,19,0.00